Time;durP1;ratioP1;P1;durP2;ratioP2;P2;SDS_P1;SDS_P2;PMS_P1;PMS_P2;Temp;Humidity;BMP_temperature;BMP_pressure;BME280_temperature;BME280_humidity;BME280_pressure;Samples;Min_cycle;Max_cycle;Signal;HPM_P1;HPM_P2
2023/12/13 00:00:28;;;;;;;25.88;16.05;;;4.50;1.00;;;;;;5158973;27;20238;-83
2023/12/13 00:02:55;;;;;;;20.65;15.40;;;4.50;1.00;;;;;;5152276;27;20251;-83
2023/12/13 00:05:22;;;;;;;23.00;17.23;;;4.50;1.00;;;;;;5154098;27;20226;-84
2023/12/13 00:07:49;;;;;;;20.15;16.67;;;4.50;1.00;;;;;;5156469;27;20243;-84
2023/12/13 00:10:16;;;;;;;23.80;16.38;;;4.60;1.00;;;;;;5150928;27;21042;-83
2023/12/13 00:12:43;;;;;;;21.15;16.48;;;4.60;1.00;;;;;;5151649;27;20241;-83
2023/12/13 00:15:12;;;;;;;24.88;18.02;;;4.70;1.00;;;;;;5151192;27;20231;-83
2023/12/13 00:17:39;;;;;;;24.70;17.05;;;4.70;1.00;;;;;;5152942;27;20713;-84
2023/12/13 00:20:07;;;;;;;21.58;16.35;;;4.80;1.00;;;;;;5152062;27;20233;-82
2023/12/13 00:22:35;;;;;;;24.30;17.00;;;4.80;1.00;;;;;;5153334;27;20240;-83
2023/12/13 00:25:02;;;;;;;23.13;17.05;;;4.90;1.00;;;;;;5155256;27;20252;-84
2023/12/13 00:27:29;;;;;;;25.85;17.50;;;4.80;1.00;;;;;;5153208;27;20222;-84
2023/12/13 00:29:56;;;;;;;24.17;17.67;;;4.70;1.00;;;;;;5151143;27;20237;-83
2023/12/13 00:32:24;;;;;;;24.23;16.95;;;4.70;1.00;;;;;;5145889;27;20293;-84
2023/12/13 00:34:51;;;;;;;26.65;17.85;;;4.70;1.00;;;;;;5155271;27;20234;-80
2023/12/13 00:37:18;;;;;;;26.38;17.77;;;4.80;1.00;;;;;;5152451;27;20291;-84
2023/12/13 00:39:45;;;;;;;22.95;17.88;;;4.80;1.00;;;;;;5147101;27;20309;-81
2023/12/13 00:42:13;;;;;;;27.45;18.38;;;4.90;1.00;;;;;;5150814;27;20299;-83
2023/12/13 00:44:40;;;;;;;24.52;17.42;;;4.80;1.00;;;;;;5149850;27;20236;-83
2023/12/13 00:47:07;;;;;;;26.88;18.00;;;4.80;1.00;;;;;;5155587;27;20304;-82
2023/12/13 00:49:37;;;;;;;27.27;17.50;;;4.80;1.00;;;;;;5152238;27;20235;-79
2023/12/13 00:52:04;;;;;;;27.92;18.08;;;4.70;1.00;;;;;;5149286;27;20254;-80
2023/12/13 00:54:31;;;;;;;24.38;18.98;;;4.70;1.00;;;;;;5148899;27;20751;-80
2023/12/13 00:56:58;;;;;;;26.38;18.90;;;4.70;1.00;;;;;;5152078;27;20291;-84
2023/12/13 00:59:26;;;;;;;26.33;18.83;;;4.80;1.00;;;;;;5153124;27;20240;-80
2023/12/13 01:01:52;;;;;;;26.67;18.08;;;4.80;1.00;;;;;;5154395;27;20245;-83
2023/12/13 01:04:20;;;;;;;26.77;19.00;;;4.70;1.00;;;;;;5151537;27;20315;-84
2023/12/13 01:06:48;;;;;;;26.08;18.08;;;4.70;1.00;;;;;;5150775;27;20237;-84
2023/12/13 01:09:15;;;;;;;29.27;17.88;;;4.80;1.00;;;;;;5152278;27;20282;-83
2023/12/13 01:11:42;;;;;;;23.85;18.55;;;4.80;1.00;;;;;;5150314;27;20331;-82
2023/12/13 01:14:09;;;;;;;23.38;17.60;;;4.90;1.00;;;;;;5138999;27;20954;-84
2023/12/13 01:16:36;;;;;;;28.25;18.20;;;4.90;1.00;;;;;;5146153;27;20298;-81
2023/12/13 01:19:03;;;;;;;25.85;19.15;;;5.00;1.00;;;;;;5150608;27;22208;-84
2023/12/13 01:21:30;;;;;;;23.98;17.73;;;5.00;1.00;;;;;;5151532;27;20235;-84
2023/12/13 01:24:00;;;;;;;23.55;18.75;;;5.00;1.00;;;;;;5150108;27;20238;-84
2023/12/13 01:26:27;;;;;;;23.95;17.75;;;5.00;1.00;;;;;;5149521;27;20663;-82
2023/12/13 01:28:54;;;;;;;21.88;17.90;;;5.00;1.00;;;;;;5146838;27;20242;-82
2023/12/13 01:31:21;;;;;;;22.58;17.75;;;5.00;1.00;;;;;;5150188;27;20726;-83
2023/12/13 01:33:48;;;;;;;21.90;18.17;;;5.00;1.00;;;;;;5146743;27;20241;-83
2023/12/13 01:36:15;;;;;;;22.15;16.88;;;5.10;1.00;;;;;;5150926;27;20225;-82
2023/12/13 01:38:42;;;;;;;18.77;15.93;;;5.10;1.00;;;;;;5152327;27;20241;-82
2023/12/13 01:41:10;;;;;;;22.17;17.58;;;5.10;1.00;;;;;;5151130;27;20245;-83
2023/12/13 01:43:37;;;;;;;20.67;17.80;;;5.10;1.00;;;;;;5152341;27;20225;-82
2023/12/13 01:46:05;;;;;;;21.85;18.77;;;5.10;1.00;;;;;;5154477;27;20971;-78
2023/12/13 01:48:32;;;;;;;19.50;17.40;;;5.10;1.00;;;;;;5150140;27;20279;-83
2023/12/13 01:50:59;;;;;;;23.23;17.25;;;5.10;1.00;;;;;;5151350;27;20247;-83
2023/12/13 01:53:27;;;;;;;21.02;15.82;;;5.20;1.00;;;;;;5146113;27;20238;-82
2023/12/13 01:55:55;;;;;;;20.85;16.40;;;5.20;1.00;;;;;;5153361;27;20262;-80
2023/12/13 01:58:24;;;;;;;20.55;16.75;;;5.10;1.00;;;;;;5152730;27;20908;-83
2023/12/13 02:00:52;;;;;;;19.05;14.98;;;5.10;1.00;;;;;;5156438;27;20237;-79
2023/12/13 02:03:21;;;;;;;18.60;16.50;;;5.10;1.00;;;;;;5151533;27;20732;-82
2023/12/13 02:05:50;;;;;;;19.33;14.88;;;5.10;1.00;;;;;;5151344;27;20263;-80
2023/12/13 02:08:17;;;;;;;20.20;16.30;;;5.20;1.00;;;;;;5149353;27;20249;-82
2023/12/13 02:10:45;;;;;;;21.42;16.00;;;5.20;1.00;;;;;;5153501;27;20471;-81
2023/12/13 02:13:14;;;;;;;20.45;16.63;;;5.10;1.00;;;;;;5149051;27;20226;-81
2023/12/13 02:15:44;;;;;;;18.52;15.38;;;5.20;1.00;;;;;;5152970;27;20234;-82
2023/12/13 02:18:11;;;;;;;21.75;16.25;;;5.10;1.00;;;;;;5154753;27;20230;-82
2023/12/13 02:20:38;;;;;;;21.73;16.30;;;4.90;1.00;;;;;;5149447;27;20264;-75
2023/12/13 02:23:06;;;;;;;23.55;16.25;;;5.00;1.00;;;;;;5149428;27;20789;-76
2023/12/13 02:25:38;;;;;;;18.00;15.75;;;5.10;1.00;;;;;;5151541;27;20230;-78
2023/12/13 02:28:06;;;;;;;19.45;14.55;;;5.10;1.00;;;;;;5150356;27;20269;-77
2023/12/13 02:30:33;;;;;;;17.38;15.48;;;5.10;1.00;;;;;;5146383;27;20246;-76
2023/12/13 02:33:02;;;;;;;22.27;15.38;;;5.10;1.00;;;;;;5152231;27;20237;-75
2023/12/13 02:35:29;;;;;;;19.33;15.85;;;5.10;1.00;;;;;;5148803;27;20782;-76
2023/12/13 02:37:55;;;;;;;22.17;15.88;;;5.10;1.00;;;;;;5148314;27;20234;-76
2023/12/13 02:40:24;;;;;;;18.95;15.40;;;5.10;1.00;;;;;;5150947;27;20623;-75
2023/12/13 02:42:51;;;;;;;18.83;14.35;;;5.00;1.00;;;;;;5149310;27;20329;-76
2023/12/13 02:45:20;;;;;;;21.00;16.08;;;5.10;1.00;;;;;;5147145;27;20288;-76
2023/12/13 02:47:49;;;;;;;21.75;15.93;;;5.10;1.00;;;;;;5149890;27;20243;-77
2023/12/13 02:50:16;;;;;;;19.73;14.90;;;5.20;1.00;;;;;;5146374;27;20238;-76
2023/12/13 02:52:44;;;;;;;19.55;15.70;;;5.20;1.00;;;;;;5151594;27;20245;-77
2023/12/13 02:55:11;;;;;;;18.48;14.70;;;5.10;1.00;;;;;;5146163;27;20304;-76
2023/12/13 02:57:39;;;;;;;18.83;15.15;;;5.10;1.00;;;;;;5149798;27;20311;-76
2023/12/13 03:00:08;;;;;;;18.63;14.63;;;5.10;1.00;;;;;;5149141;27;20372;-76
2023/12/13 03:02:36;;;;;;;19.67;15.45;;;5.20;1.00;;;;;;5153390;27;20257;-76
2023/12/13 03:05:04;;;;;;;19.15;15.27;;;5.10;1.00;;;;;;5146918;27;20234;-77
2023/12/13 03:07:31;;;;;;;20.20;16.05;;;5.10;1.00;;;;;;5154915;27;20391;-76
2023/12/13 03:09:58;;;;;;;17.92;14.90;;;5.10;1.00;;;;;;5149362;27;20257;-77
2023/12/13 03:12:25;;;;;;;18.65;14.80;;;5.10;1.00;;;;;;5149258;27;20243;-80
2023/12/13 03:14:53;;;;;;;18.73;14.73;;;5.10;1.00;;;;;;5154846;27;20234;-78
2023/12/13 03:17:21;;;;;;;20.88;15.60;;;5.10;1.00;;;;;;5152710;27;20731;-77
2023/12/13 03:19:49;;;;;;;19.08;15.35;;;5.10;1.00;;;;;;5132761;27;20739;-77
2023/12/13 03:22:16;;;;;;;20.42;15.40;;;5.10;1.00;;;;;;5146872;27;20234;-78
2023/12/13 03:24:43;;;;;;;19.48;14.77;;;5.20;1.00;;;;;;5149241;27;20309;-76
2023/12/13 03:27:11;;;;;;;23.55;17.40;;;5.10;1.00;;;;;;5147426;27;20234;-76
2023/12/13 03:29:38;;;;;;;19.38;16.02;;;5.20;1.00;;;;;;5150066;27;20254;-78
2023/12/13 03:32:07;;;;;;;18.35;16.35;;;5.10;1.00;;;;;;5151289;27;20230;-77
2023/12/13 03:34:34;;;;;;;23.75;17.15;;;5.00;1.00;;;;;;5149144;27;20233;-77
2023/12/13 03:37:02;;;;;;;19.65;16.90;;;5.00;1.00;;;;;;5150436;27;20262;-77
2023/12/13 03:39:29;;;;;;;18.05;16.13;;;5.00;1.00;;;;;;5149904;27;20234;-76
2023/12/13 03:41:56;;;;;;;20.90;16.23;;;5.00;1.00;;;;;;5149347;27;20265;-76
2023/12/13 03:44:23;;;;;;;22.27;17.60;;;5.00;1.00;;;;;;5148035;27;20234;-77
2023/12/13 03:46:50;;;;;;;26.55;18.00;;;5.00;1.00;;;;;;5153372;27;20229;-76
2023/12/13 03:49:19;;;;;;;17.77;15.77;;;5.00;1.00;;;;;;5149475;27;20541;-77
2023/12/13 03:51:47;;;;;;;23.20;15.55;;;5.10;1.00;;;;;;5152179;27;20374;-76
2023/12/13 03:54:14;;;;;;;23.67;17.90;;;5.10;1.00;;;;;;5153453;27;20238;-76
2023/12/13 03:56:41;;;;;;;24.10;16.73;;;5.10;1.00;;;;;;5146296;27;20237;-78
2023/12/13 03:59:08;;;;;;;21.50;17.52;;;5.10;1.00;;;;;;5154614;27;20235;-77
2023/12/13 04:01:36;;;;;;;20.45;15.65;;;5.10;1.00;;;;;;5151398;27;21156;-78
2023/12/13 04:04:03;;;;;;;20.05;15.90;;;5.10;1.00;;;;;;5153357;27;20242;-78
2023/12/13 04:06:33;;;;;;;20.80;16.75;;;5.10;1.00;;;;;;5150788;27;21008;-77
2023/12/13 04:09:00;;;;;;;23.20;17.05;;;5.10;1.00;;;;;;5152461;27;20707;-77
2023/12/13 04:11:28;;;;;;;20.45;17.15;;;5.20;1.00;;;;;;5150284;27;20237;-77
2023/12/13 04:13:55;;;;;;;22.15;17.20;;;5.10;1.00;;;;;;5150556;27;20314;-77
2023/12/13 04:16:22;;;;;;;19.65;17.15;;;5.20;1.00;;;;;;5146556;27;20350;-77
2023/12/13 04:18:50;;;;;;;21.02;16.55;;;5.20;1.00;;;;;;5140552;27;20234;-78
2023/12/13 04:21:17;;;;;;;24.60;17.88;;;5.20;1.00;;;;;;5147379;27;21564;-77
2023/12/13 04:23:45;;;;;;;20.75;16.52;;;5.20;1.00;;;;;;5153464;27;20217;-78
2023/12/13 04:26:13;;;;;;;20.33;17.70;;;5.10;1.00;;;;;;5151254;27;20260;-79
2023/12/13 04:28:41;;;;;;;22.80;16.63;;;5.10;1.00;;;;;;5152146;27;20718;-80
2023/12/13 04:31:08;;;;;;;21.27;18.70;;;5.20;1.00;;;;;;5147963;27;20242;-77
2023/12/13 04:33:35;;;;;;;24.52;17.23;;;5.20;1.00;;;;;;5147728;27;20322;-78
2023/12/13 04:36:03;;;;;;;20.02;16.25;;;5.20;1.00;;;;;;5147986;27;20238;-78
2023/12/13 04:38:30;;;;;;;22.90;18.00;;;5.20;1.00;;;;;;5151178;27;21049;-80
2023/12/13 04:40:59;;;;;;;23.17;17.15;;;5.10;1.00;;;;;;5154221;27;20233;-78
2023/12/13 04:43:28;;;;;;;19.10;16.98;;;5.20;1.00;;;;;;5153351;27;20270;-78
2023/12/13 04:45:56;;;;;;;23.80;17.73;;;5.20;1.00;;;;;;5136422;27;20752;-75
2023/12/13 04:48:23;;;;;;;23.48;19.48;;;5.20;1.00;;;;;;5150083;27;20238;-77
2023/12/13 04:50:50;;;;;;;22.00;16.10;;;5.20;1.00;;;;;;5138520;27;20242;-77
2023/12/13 04:53:18;;;;;;;22.83;17.45;;;5.30;1.00;;;;;;5150154;27;20318;-78
2023/12/13 04:55:45;;;;;;;23.05;18.75;;;5.30;1.00;;;;;;5150718;27;20238;-78
2023/12/13 04:58:14;;;;;;;20.63;17.25;;;5.30;1.00;;;;;;5153309;27;20291;-77
2023/12/13 05:00:42;;;;;;;20.05;16.90;;;5.40;1.00;;;;;;5149063;27;21200;-75
2023/12/13 05:03:09;;;;;;;22.90;18.38;;;5.40;1.00;;;;;;5145870;27;20226;-77
2023/12/13 05:05:36;;;;;;;22.67;17.45;;;5.40;1.00;;;;;;5144098;27;20231;-76
2023/12/13 05:08:04;;;;;;;23.45;17.98;;;5.50;1.00;;;;;;5148238;27;20784;-76
2023/12/13 05:10:32;;;;;;;20.38;16.67;;;5.40;1.00;;;;;;5147666;27;20725;-76
2023/12/13 05:12:59;;;;;;;27.33;18.10;;;5.40;1.00;;;;;;5150863;27;20236;-76
2023/12/13 05:15:27;;;;;;;23.27;17.65;;;5.50;1.00;;;;;;5154170;27;20296;-77
2023/12/13 05:17:54;;;;;;;22.35;17.55;;;5.50;1.00;;;;;;5150509;27;20241;-77
2023/12/13 05:20:22;;;;;;;25.73;17.77;;;5.50;1.00;;;;;;5148870;27;20325;-76
2023/12/13 05:22:49;;;;;;;22.48;19.77;;;5.50;1.00;;;;;;5149334;27;20259;-75
2023/12/13 05:25:16;;;;;;;22.17;19.40;;;5.50;1.00;;;;;;5147928;27;20236;-78
2023/12/13 05:27:44;;;;;;;21.08;18.83;;;5.50;1.00;;;;;;5145431;27;20242;-78
2023/12/13 05:30:12;;;;;;;22.50;17.90;;;5.50;1.00;;;;;;5151059;27;20971;-78
2023/12/13 05:32:40;;;;;;;25.50;18.70;;;5.50;1.00;;;;;;5144766;27;20245;-77
2023/12/13 05:35:09;;;;;;;24.48;20.42;;;5.50;1.00;;;;;;5148582;27;20739;-77
2023/12/13 05:37:36;;;;;;;23.15;18.08;;;5.60;1.00;;;;;;5148638;27;21074;-76
2023/12/13 05:40:05;;;;;;;23.38;19.77;;;5.60;1.00;;;;;;5147261;27;20236;-77
2023/12/13 05:42:33;;;;;;;29.95;21.48;;;5.60;1.00;;;;;;5131724;27;20746;-77
2023/12/13 05:45:00;;;;;;;27.13;20.52;;;5.60;1.00;;;;;;5150027;27;20312;-77
2023/12/13 05:47:29;;;;;;;24.83;19.27;;;5.60;1.00;;;;;;5149825;27;20242;-76
2023/12/13 05:49:57;;;;;;;25.60;19.30;;;5.60;1.00;;;;;;5150671;27;20234;-76
2023/12/13 05:52:24;;;;;;;25.27;19.58;;;5.50;1.00;;;;;;5145160;27;20243;-78
2023/12/13 05:54:51;;;;;;;23.13;20.75;;;5.50;1.00;;;;;;5145128;27;20230;-77
2023/12/13 05:57:18;;;;;;;29.27;20.90;;;5.50;1.00;;;;;;5147870;27;20588;-77
2023/12/13 05:59:45;;;;;;;25.25;21.80;;;5.50;1.00;;;;;;5151931;27;20235;-80
2023/12/13 06:02:13;;;;;;;29.27;19.80;;;5.60;1.00;;;;;;5148639;27;20234;-77
2023/12/13 06:04:43;;;;;;;28.95;21.17;;;5.60;1.00;;;;;;5146339;27;20238;-79
2023/12/13 06:07:11;;;;;;;26.55;20.33;;;5.60;1.00;;;;;;5145311;27;20238;-77
2023/12/13 06:09:41;;;;;;;28.42;21.08;;;5.60;1.00;;;;;;5150860;27;20223;-76
2023/12/13 06:12:09;;;;;;;28.05;21.30;;;5.70;1.00;;;;;;5143407;27;20227;-79
2023/12/13 06:14:38;;;;;;;28.17;21.30;;;5.50;1.00;;;;;;5144021;27;20788;-77
2023/12/13 06:17:07;;;;;;;27.80;20.58;;;5.50;1.00;;;;;;5134514;27;20345;-76
2023/12/13 06:19:35;;;;;;;27.02;21.75;;;5.50;1.00;;;;;;5147460;27;20238;-77
2023/12/13 06:22:02;;;;;;;29.65;21.15;;;5.50;1.00;;;;;;5149667;27;20242;-80
2023/12/13 06:24:32;;;;;;;25.05;20.73;;;5.40;1.00;;;;;;5157002;27;20999;-81
2023/12/13 06:27:00;;;;;;;27.50;21.35;;;5.50;1.00;;;;;;5152316;27;20234;-78
2023/12/13 06:29:27;;;;;;;27.08;21.90;;;5.50;1.00;;;;;;5145229;27;20302;-79
2023/12/13 06:31:55;;;;;;;25.45;20.23;;;5.60;1.00;;;;;;5152170;27;21018;-80
2023/12/13 06:34:32;;;;;;;26.35;21.00;;;5.60;1.00;;;;;;5158084;27;20238;-77
2023/12/13 06:37:00;;;;;;;26.50;21.23;;;5.60;1.00;;;;;;5151826;27;20238;-80
2023/12/13 06:39:26;;;;;;;24.90;20.92;;;5.60;1.00;;;;;;5153743;27;21846;-80
2023/12/13 06:41:55;;;;;;;24.90;20.70;;;5.60;1.00;;;;;;5155495;27;20284;-81
2023/12/13 06:44:23;;;;;;;29.63;22.17;;;5.70;1.00;;;;;;5146416;27;20481;-84
2023/12/13 06:47:01;;;;;;;27.17;20.27;;;5.70;1.00;;;;;;5155467;27;20265;-80
2023/12/13 06:49:30;;;;;;;24.20;20.75;;;5.80;1.00;;;;;;5126996;27;20357;-80
2023/12/13 06:51:57;;;;;;;22.08;19.50;;;5.80;1.00;;;;;;5148021;27;20239;-79
2023/12/13 06:54:24;;;;;;;22.85;18.50;;;5.80;1.00;;;;;;5148148;27;20243;-81
2023/12/13 06:56:52;;;;;;;24.60;18.55;;;5.80;1.00;;;;;;5153863;27;20504;-78
2023/12/13 06:59:21;;;;;;;22.83;19.13;;;6.00;1.00;;;;;;5151194;27;20241;-81
2023/12/13 07:01:49;;;;;;;22.73;18.67;;;6.00;1.00;;;;;;5149647;27;21060;-81
2023/12/13 07:04:16;;;;;;;18.98;16.75;;;5.90;1.00;;;;;;5148249;27;22402;-80
2023/12/13 07:06:45;;;;;;;22.33;17.77;;;6.00;1.00;;;;;;5144752;27;20947;-78
2023/12/13 07:09:18;;;;;;;20.75;16.45;;;6.00;1.00;;;;;;5151423;27;20243;-80
2023/12/13 07:11:46;;;;;;;20.63;18.42;;;6.00;1.00;;;;;;5149930;27;20747;-79
2023/12/13 07:14:14;;;;;;;17.42;15.27;;;6.00;1.00;;;;;;5154808;27;20293;-79
2023/12/13 07:16:43;;;;;;;21.60;18.42;;;6.00;1.00;;;;;;5151765;27;20234;-80
2023/12/13 07:19:11;;;;;;;25.75;19.10;;;6.00;1.00;;;;;;5151035;27;20343;-80
2023/12/13 07:21:47;;;;;;;22.35;18.90;;;6.00;1.00;;;;;;5151944;27;20861;-80
2023/12/13 07:24:26;;;;;;;24.48;19.98;;;6.00;1.00;;;;;;5115046;27;20242;-81
2023/12/13 07:26:55;;;;;;;22.30;17.85;;;6.00;1.00;;;;;;5123460;27;20250;-79
2023/12/13 07:29:25;;;;;;;21.33;19.10;;;6.00;1.00;;;;;;5113677;27;20333;-79
2023/12/13 08:00:39;;;;;;;22.85;19.45;;;6.10;1.00;;;;;;5133870;27;20223;-82
2023/12/13 08:03:06;;;;;;;25.85;20.95;;;6.00;1.00;;;;;;5138019;27;21053;-81
2023/12/13 08:05:36;;;;;;;32.22;22.40;;;6.00;1.00;;;;;;5137766;27;20269;-82
2023/12/13 08:08:05;;;;;;;24.65;20.75;;;6.00;1.00;;;;;;5132206;27;20258;-81
2023/12/13 08:10:32;;;;;;;26.25;21.52;;;6.00;1.00;;;;;;5123099;27;20233;-81
2023/12/13 08:13:02;;;;;;;30.63;23.17;;;6.10;1.00;;;;;;5137026;27;20713;-81
2023/12/13 08:15:31;;;;;;;30.58;23.25;;;6.10;1.00;;;;;;5136451;27;20267;-80
2023/12/13 08:18:00;;;;;;;29.40;22.45;;;6.00;1.00;;;;;;5136870;27;20253;-83
2023/12/13 08:20:29;;;;;;;33.25;23.85;;;6.00;1.00;;;;;;5130719;27;20258;-81
2023/12/13 08:22:56;;;;;;;29.52;22.30;;;6.00;1.00;;;;;;5120971;27;20231;-83
2023/12/13 08:25:26;;;;;;;27.98;23.00;;;6.00;1.00;;;;;;5138521;27;20241;-82
2023/12/13 08:27:55;;;;;;;33.08;25.50;;;6.00;1.00;;;;;;5133949;27;20804;-80
2023/12/13 08:30:23;;;;;;;31.05;24.17;;;6.10;1.00;;;;;;5132285;27;20220;-82
2023/12/13 08:32:57;;;;;;;31.47;24.70;;;6.10;1.00;;;;;;5104483;27;20236;-81
2023/12/13 08:35:28;;;;;;;31.98;24.55;;;6.10;1.00;;;;;;5138176;27;20448;-82
2023/12/13 08:37:56;;;;;;;32.55;25.05;;;6.20;1.00;;;;;;5144478;27;20285;-81
2023/12/13 08:40:23;;;;;;;30.58;26.98;;;6.20;1.00;;;;;;5138161;27;20285;-83
2023/12/13 08:42:50;;;;;;;31.08;24.70;;;6.20;1.00;;;;;;5133924;27;20615;-81
2023/12/13 08:45:19;;;;;;;35.95;29.05;;;6.20;1.00;;;;;;5134229;27;20238;-82
2023/12/13 08:47:47;;;;;;;32.60;26.10;;;6.10;1.00;;;;;;5136443;27;21047;-82
2023/12/13 08:50:16;;;;;;;31.33;25.15;;;6.20;1.00;;;;;;5138842;27;20235;-82
2023/12/13 08:52:44;;;;;;;33.83;27.60;;;6.20;1.00;;;;;;5136559;27;21093;-82
2023/12/13 08:55:16;;;;;;;31.73;26.45;;;6.20;1.00;;;;;;5139601;27;20954;-83
2023/12/13 08:57:43;;;;;;;36.67;26.15;;;6.20;1.00;;;;;;5130826;27;20749;-82
2023/12/13 09:00:12;;;;;;;30.52;25.25;;;6.20;1.00;;;;;;5154118;27;20312;-81
2023/12/13 09:02:41;;;;;;;39.05;27.58;;;6.20;1.00;;;;;;5137667;27;20247;-81
2023/12/13 09:05:11;;;;;;;33.25;26.65;;;6.20;1.00;;;;;;5156296;27;20251;-80
2023/12/13 09:07:38;;;;;;;35.30;28.15;;;6.20;1.00;;;;;;5152404;27;20250;-81
2023/12/13 09:10:09;;;;;;;37.70;27.38;;;6.20;1.00;;;;;;5154504;27;20332;-82
2023/12/13 09:12:37;;;;;;;35.60;26.80;;;6.20;1.00;;;;;;5155494;27;20242;-82
2023/12/13 09:15:07;;;;;;;34.42;28.15;;;6.40;1.00;;;;;;5160251;27;20732;-83
2023/12/13 09:17:37;;;;;;;32.90;28.27;;;6.30;1.00;;;;;;5153958;27;20222;-83
2023/12/13 09:20:04;;;;;;;33.35;28.30;;;6.30;1.00;;;;;;5156957;27;20321;-81
2023/12/13 09:22:33;;;;;;;34.95;27.40;;;6.30;1.00;;;;;;5147233;27;20815;-82
2023/12/13 09:25:01;;;;;;;37.28;25.88;;;6.30;1.00;;;;;;5157038;27;20238;-82
2023/12/13 09:27:29;;;;;;;35.53;27.80;;;6.40;1.00;;;;;;5147618;27;20220;-84
2023/12/13 09:29:57;;;;;;;35.50;28.88;;;6.40;1.00;;;;;;5157373;27;20263;-82
2023/12/13 09:32:24;;;;;;;39.08;27.98;;;6.40;1.00;;;;;;5148958;27;20981;-82
2023/12/13 09:34:51;;;;;;;31.90;27.60;;;6.30;1.00;;;;;;5143994;27;20240;-81
2023/12/13 09:37:19;;;;;;;37.42;29.48;;;6.30;1.00;;;;;;5152656;27;20243;-82
2023/12/13 09:39:47;;;;;;;35.47;28.90;;;6.30;1.00;;;;;;5154908;27;20232;-82
2023/12/13 09:42:14;;;;;;;38.05;31.00;;;6.30;1.00;;;;;;5161603;27;20464;-83
2023/12/13 09:44:44;;;;;;;34.72;29.50;;;6.40;1.00;;;;;;5154012;27;20242;-84
2023/12/13 09:47:14;;;;;;;37.92;29.13;;;6.40;1.00;;;;;;5160944;27;20322;-82
2023/12/13 09:49:47;;;;;;;38.78;28.95;;;6.40;1.00;;;;;;5142892;27;20260;-83
2023/12/13 09:52:20;;;;;;;36.58;30.42;;;6.40;1.00;;;;;;5149226;27;20314;-84
2023/12/13 09:54:52;;;;;;;36.55;27.70;;;6.40;1.00;;;;;;5154299;27;20376;-83
2023/12/13 09:57:20;;;;;;;37.65;29.90;;;6.30;1.00;;;;;;5155763;27;20231;-83
2023/12/13 09:59:48;;;;;;;35.92;28.30;;;6.30;1.00;;;;;;5143680;27;20235;-83
2023/12/13 10:02:17;;;;;;;36.72;27.65;;;6.20;1.00;;;;;;5132466;27;20279;-84
2023/12/13 10:04:45;;;;;;;36.08;28.33;;;6.20;1.00;;;;;;5134773;27;20249;-83
2023/12/13 10:07:13;;;;;;;36.00;29.40;;;6.20;1.00;;;;;;5140122;27;20660;-83
2023/12/13 10:09:40;;;;;;;36.17;28.40;;;6.30;1.00;;;;;;5135850;27;20214;-83
2023/12/13 10:12:12;;;;;;;38.58;27.92;;;6.30;1.00;;;;;;5138535;27;20232;-84
2023/12/13 10:14:42;;;;;;;40.90;33.20;;;6.40;1.00;;;;;;5140386;27;20243;-83
2023/12/13 10:17:12;;;;;;;34.35;27.52;;;6.50;1.00;;;;;;5140472;27;20238;-86
2023/12/13 10:19:40;;;;;;;34.67;25.90;;;6.50;1.00;;;;;;5136617;27;20229;-83
2023/12/13 10:22:10;;;;;;;31.75;26.05;;;6.40;1.00;;;;;;5138160;27;20238;-84
2023/12/13 10:24:37;;;;;;;39.58;28.15;;;6.40;1.00;;;;;;5138064;27;20248;-81
2023/12/13 10:27:06;;;;;;;31.58;26.25;;;6.40;1.00;;;;;;5136101;27;20993;-82
2023/12/13 10:29:34;;;;;;;31.10;25.02;;;6.40;1.00;;;;;;5132191;27;20244;-83
2023/12/13 10:32:01;;;;;;;32.40;25.27;;;6.40;1.00;;;;;;5137760;27;20294;-84
2023/12/13 10:34:29;;;;;;;35.13;27.00;;;6.40;1.00;;;;;;5141952;27;20995;-85
2023/12/13 10:37:00;;;;;;;33.60;26.00;;;6.40;1.00;;;;;;5139140;27;20241;-80
2023/12/13 10:39:28;;;;;;;34.38;25.98;;;6.40;1.00;;;;;;5134503;27;20919;-80
2023/12/13 10:41:57;;;;;;;36.55;28.30;;;6.40;1.00;;;;;;5130921;27;20300;-80
2023/12/13 10:44:27;;;;;;;33.85;26.75;;;6.50;1.00;;;;;;5132800;27;21027;-79
2023/12/13 10:46:57;;;;;;;34.25;25.70;;;6.60;1.00;;;;;;5135049;27;20238;-80
2023/12/13 10:49:25;;;;;;;30.33;24.05;;;6.60;1.00;;;;;;5137342;27;20220;-80
2023/12/13 10:51:54;;;;;;;28.83;24.60;;;6.50;1.00;;;;;;5138169;27;20237;-80
2023/12/13 10:54:24;;;;;;;48.00;37.92;;;6.60;1.00;;;;;;5135115;27;20228;-81
2023/12/13 10:56:53;;;;;;;29.08;23.30;;;6.50;1.00;;;;;;5132980;27;20243;-80
2023/12/13 10:59:24;;;;;;;30.20;23.10;;;6.50;1.00;;;;;;5135241;27;20235;-80
2023/12/13 11:01:51;;;;;;;28.48;23.95;;;6.40;1.00;;;;;;5130728;27;20236;-82
2023/12/13 11:04:23;;;;;;;33.60;25.13;;;6.40;1.00;;;;;;5138474;27;20851;-82
2023/12/13 11:06:50;;;;;;;31.52;23.38;;;6.30;1.00;;;;;;5139958;27;20254;-82
2023/12/13 11:09:22;;;;;;;31.58;24.65;;;6.40;1.00;;;;;;5137084;27;20288;-81
2023/12/13 11:11:49;;;;;;;30.00;23.48;;;6.40;1.00;;;;;;5135279;27;20237;-81
2023/12/13 11:14:20;;;;;;;31.10;24.30;;;6.40;1.00;;;;;;5138351;27;20263;-81
2023/12/13 11:16:48;;;;;;;31.33;25.27;;;6.50;1.00;;;;;;5140011;27;20239;-82
2023/12/13 11:19:19;;;;;;;29.55;24.45;;;6.50;1.00;;;;;;5137827;27;20262;-83
2023/12/13 11:21:47;;;;;;;30.77;25.60;;;6.50;1.00;;;;;;5139058;27;20662;-81
2023/12/13 11:24:19;;;;;;;32.67;24.98;;;6.30;1.00;;;;;;5137231;27;20236;-80
2023/12/13 11:26:50;;;;;;;30.90;23.63;;;6.30;1.00;;;;;;5137609;27;21108;-81
2023/12/13 11:29:21;;;;;;;29.40;23.80;;;6.30;1.00;;;;;;5137082;27;20317;-81
2023/12/13 11:31:51;;;;;;;28.67;23.67;;;6.30;1.00;;;;;;5121744;27;20649;-82
2023/12/13 11:34:18;;;;;;;28.70;24.45;;;6.40;1.00;;;;;;5138029;27;20244;-81
2023/12/13 11:36:46;;;;;;;32.95;25.60;;;6.40;1.00;;;;;;5139706;27;20236;-81
2023/12/13 11:39:16;;;;;;;30.50;25.75;;;6.40;1.00;;;;;;5141518;27;20230;-81
2023/12/13 11:41:43;;;;;;;35.40;25.25;;;6.40;1.00;;;;;;5141677;27;20721;-82
2023/12/13 11:44:15;;;;;;;29.88;23.65;;;6.40;1.00;;;;;;5138831;27;20239;-81
2023/12/13 11:46:42;;;;;;;30.63;25.50;;;6.40;1.00;;;;;;5141570;27;20322;-82
2023/12/13 11:49:09;;;;;;;33.58;26.42;;;6.30;1.00;;;;;;5139343;27;20228;-81
2023/12/13 11:51:37;;;;;;;35.03;24.23;;;6.30;1.00;;;;;;5143694;27;20496;-82
2023/12/13 11:54:06;;;;;;;32.47;26.75;;;6.40;1.00;;;;;;5138320;27;20240;-82
2023/12/13 11:56:33;;;;;;;32.95;25.27;;;6.40;1.00;;;;;;5137721;27;20240;-81
2023/12/13 11:59:02;;;;;;;35.20;26.23;;;6.40;1.00;;;;;;5143598;27;20703;-82
2023/12/13 12:01:30;;;;;;;35.55;26.88;;;6.40;1.00;;;;;;5155988;27;20233;-81
2023/12/13 12:03:58;;;;;;;35.08;27.08;;;6.40;1.00;;;;;;5156685;27;20264;-81
2023/12/13 12:06:25;;;;;;;35.70;26.90;;;6.40;1.00;;;;;;5158499;27;20242;-82
2023/12/13 12:08:52;;;;;;;33.67;26.60;;;6.50;1.00;;;;;;5158039;27;20969;-82
2023/12/13 12:11:21;;;;;;;34.88;25.38;;;6.60;1.00;;;;;;5150816;27;20932;-82
2023/12/13 12:13:51;;;;;;;35.97;27.92;;;6.60;1.00;;;;;;5154144;27;20793;-80
2023/12/13 12:16:19;;;;;;;38.28;26.65;;;6.60;1.00;;;;;;5152254;27;20240;-81
2023/12/13 12:18:47;;;;;;;33.90;25.17;;;6.50;1.00;;;;;;5163278;27;20230;-83
2023/12/13 12:21:15;;;;;;;31.55;25.67;;;6.50;1.00;;;;;;5152624;27;20228;-79
2023/12/13 13:12:53;;;;;;;28.33;22.95;;;6.80;1.00;;;;;;5083356;28;20236;-81
2023/12/13 13:15:22;;;;;;;32.27;23.37;;;6.80;1.00;;;;;;5108627;27;20743;-81
2023/12/13 13:17:50;;;;;;;32.87;24.10;;;6.70;1.00;;;;;;5161807;27;20457;-81
2023/12/13 13:20:18;;;;;;;31.48;24.58;;;6.60;1.00;;;;;;5153786;27;20490;-82
2023/12/13 13:22:46;;;;;;;33.53;23.23;;;6.50;1.00;;;;;;5157469;27;20692;-82
2023/12/13 13:25:14;;;;;;;36.95;26.27;;;6.60;1.00;;;;;;5154782;27;20469;-81
2023/12/13 13:27:43;;;;;;;36.30;24.63;;;6.70;1.00;;;;;;5160326;27;20232;-82
2023/12/13 13:30:13;;;;;;;29.92;24.83;;;6.70;1.00;;;;;;5158308;27;20290;-82
2023/12/13 13:32:41;;;;;;;31.92;25.40;;;6.70;1.00;;;;;;5157122;27;20271;-79
2023/12/13 13:35:10;;;;;;;34.43;25.47;;;6.80;1.00;;;;;;5156904;27;20240;-80
2023/12/13 13:37:38;;;;;;;35.03;26.33;;;6.80;1.00;;;;;;5153733;27;20442;-80
2023/12/13 13:40:06;;;;;;;32.05;24.33;;;6.80;1.00;;;;;;5157346;27;20333;-80
2023/12/13 13:42:35;;;;;;;32.67;24.60;;;6.90;1.00;;;;;;5160233;27;21005;-81
2023/12/13 13:45:07;;;;;;;31.90;24.10;;;7.00;1.00;;;;;;5160981;27;20493;-80
2023/12/13 13:47:38;;;;;;;32.60;24.55;;;6.90;1.00;;;;;;5157220;27;20298;-81
2023/12/13 13:50:09;;;;;;;29.75;22.95;;;6.90;1.00;;;;;;5161116;27;20245;-80
2023/12/13 13:52:38;;;;;;;36.90;23.90;;;6.90;1.00;;;;;;5158161;27;20293;-80
2023/12/13 13:55:06;;;;;;;35.93;25.30;;;6.80;1.00;;;;;;5159559;27;20655;-79
2023/12/13 13:57:36;;;;;;;32.10;23.97;;;6.80;1.00;;;;;;5158484;27;21099;-81
2023/12/13 14:00:08;;;;;;;35.70;24.93;;;6.90;1.00;;;;;;5141134;27;20457;-81
2023/12/13 14:02:36;;;;;;;35.90;25.47;;;6.90;1.00;;;;;;5157391;27;20914;-80
2023/12/13 14:05:04;;;;;;;33.27;24.47;;;6.90;1.00;;;;;;5157639;27;20468;-82
2023/12/13 14:07:32;;;;;;;34.07;25.30;;;6.80;1.00;;;;;;5156688;27;20478;-79
2023/12/13 14:09:59;;;;;;;34.65;25.10;;;6.80;1.00;;;;;;5160729;27;20542;-81